Time;durP1;ratioP1;P1;durP2;ratioP2;P2;SDS_P1;SDS_P2;PMS_P1;PMS_P2;Temp;Humidity;BMP_temperature;BMP_pressure;BME280_temperature;BME280_humidity;BME280_pressure;Samples;Min_cycle;Max_cycle;Signal;HPM_P1;HPM_P2
2022/03/05 00:00:31;;;;;;;25.60;10.73;;;;;;;;;;5072781;28;20455;-69
2022/03/05 00:02:58;;;;;;;27.10;11.13;;;;;;;;;;5072390;28;21010;-70
2022/03/05 00:05:25;;;;;;;21.50;11.60;;;;;;;;;;5072576;28;20877;-69
2022/03/05 00:07:52;;;;;;;23.50;12.30;;;;;;;;;;5072689;28;20471;-70
2022/03/05 00:10:21;;;;;;;27.20;11.63;;;;;;;;;;5072871;28;20460;-70
2022/03/05 00:12:48;;;;;;;18.27;11.13;;;;;;;;;;5072658;28;20455;-71
2022/03/05 00:15:17;;;;;;;17.10;9.90;;;;;;;;;;5072552;28;20447;-69
2022/03/05 00:17:44;;;;;;;24.60;12.97;;;;;;;;;;5072164;28;20800;-69
2022/03/05 00:20:12;;;;;;;22.70;10.80;;;;;;;;;;5072680;28;20454;-69
2022/03/05 00:22:39;;;;;;;25.10;11.20;;;;;;;;;;5072349;28;20444;-69
2022/03/05 00:25:06;;;;;;;27.10;11.60;;;;;;;;;;5072500;28;20451;-70
2022/03/05 00:27:34;;;;;;;24.20;12.13;;;;;;;;;;5072472;28;20480;-69
2022/03/05 00:30:01;;;;;;;31.33;12.03;;;;;;;;;;5072661;28;20538;-70
2022/03/05 00:32:29;;;;;;;25.63;12.10;;;;;;;;;;5072458;28;20451;-69
2022/03/05 00:34:56;;;;;;;24.53;13.70;;;;;;;;;;5072265;28;20451;-70
2022/03/05 00:37:24;;;;;;;25.40;10.10;;;;;;;;;;5072391;28;20495;-70
2022/03/05 00:39:51;;;;;;;24.63;11.13;;;;;;;;;;5072304;28;20452;-70
2022/03/05 00:42:18;;;;;;;30.70;14.53;;;;;;;;;;5072478;28;20451;-69
2022/03/05 00:44:45;;;;;;;21.07;10.87;;;;;;;;;;5072003;28;20459;-69
2022/03/05 00:47:12;;;;;;;16.60;10.67;;;;;;;;;;5072325;28;20983;-69
2022/03/05 00:49:41;;;;;;;20.60;10.10;;;;;;;;;;5072357;28;20447;-69
2022/03/05 00:52:08;;;;;;;19.30;10.03;;;;;;;;;;5071922;28;20933;-70
2022/03/05 00:54:35;;;;;;;22.27;12.43;;;;;;;;;;5072207;28;20454;-70
2022/03/05 00:57:02;;;;;;;28.30;11.53;;;;;;;;;;5071708;28;20471;-69
2022/03/05 00:59:29;;;;;;;16.67;9.77;;;;;;;;;;5072431;28;20510;-69
2022/03/05 01:01:57;;;;;;;23.67;11.23;;;;;;;;;;5073898;28;20455;-69
2022/03/05 01:04:24;;;;;;;20.97;10.70;;;;;;;;;;5075273;28;20546;-69
2022/03/05 01:06:52;;;;;;;21.87;9.63;;;;;;;;;;5075515;28;20510;-72
2022/03/05 01:09:19;;;;;;;14.40;7.17;;;;;;;;;;5075850;28;20519;-69
2022/03/05 01:11:47;;;;;;;22.27;9.57;;;;;;;;;;5075577;28;20451;-71
2022/03/05 01:14:14;;;;;;;19.23;8.77;;;;;;;;;;5075408;28;20458;-69
2022/03/05 01:16:41;;;;;;;21.40;8.47;;;;;;;;;;5075436;28;20475;-69
2022/03/05 01:19:08;;;;;;;20.13;10.83;;;;;;;;;;5075469;28;21008;-70
2022/03/05 01:21:36;;;;;;;19.67;10.60;;;;;;;;;;5075596;28;20822;-69
2022/03/05 01:24:04;;;;;;;19.53;10.13;;;;;;;;;;5075213;28;20463;-69
2022/03/05 01:26:31;;;;;;;17.30;11.30;;;;;;;;;;5075124;28;20458;-69
2022/03/05 01:28:59;;;;;;;19.10;10.17;;;;;;;;;;5075417;28;20551;-69
2022/03/05 01:31:26;;;;;;;22.40;12.13;;;;;;;;;;5074817;28;20447;-69
2022/03/05 01:33:53;;;;;;;18.93;9.97;;;;;;;;;;5074952;28;20448;-69
2022/03/05 01:36:20;;;;;;;19.60;9.03;;;;;;;;;;5075272;28;20454;-69
2022/03/05 01:38:47;;;;;;;27.83;10.43;;;;;;;;;;5075108;28;20483;-69
2022/03/05 01:41:15;;;;;;;19.87;11.70;;;;;;;;;;5075184;28;20811;-69
2022/03/05 01:43:42;;;;;;;22.67;10.90;;;;;;;;;;5074864;28;20456;-70
2022/03/05 01:46:10;;;;;;;23.13;10.90;;;;;;;;;;5075092;28;20956;-69
2022/03/05 01:48:37;;;;;;;30.57;11.97;;;;;;;;;;5074833;28;20538;-70
2022/03/05 01:51:04;;;;;;;27.20;12.60;;;;;;;;;;5074999;28;20455;-69
2022/03/05 01:53:31;;;;;;;28.77;14.40;;;;;;;;;;5074679;28;20459;-70
2022/03/05 01:55:58;;;;;;;22.90;10.63;;;;;;;;;;5074737;28;20970;-69
2022/03/05 01:58:27;;;;;;;25.63;11.53;;;;;;;;;;5074647;28;20483;-69
2022/03/05 02:00:54;;;;;;;19.73;7.93;;;;;;;;;;5074922;28;20456;-70
2022/03/05 02:03:21;;;;;;;19.73;11.70;;;;;;;;;;5074697;28;20475;-71
2022/03/05 02:05:48;;;;;;;24.03;11.30;;;;;;;;;;5074506;28;20447;-70
2022/03/05 02:08:17;;;;;;;33.40;12.10;;;;;;;;;;5074649;28;20500;-70
2022/03/05 02:10:44;;;;;;;35.27;14.43;;;;;;;;;;5074605;28;20467;-70
2022/03/05 02:13:11;;;;;;;23.80;13.03;;;;;;;;;;5074437;28;20443;-70
2022/03/05 02:15:39;;;;;;;34.03;13.10;;;;;;;;;;5074387;28;20452;-70
2022/03/05 02:18:06;;;;;;;22.67;12.27;;;;;;;;;;5074559;28;20510;-69
2022/03/05 02:20:35;;;;;;;26.43;10.83;;;;;;;;;;5074621;28;20452;-69
2022/03/05 02:23:02;;;;;;;30.23;13.93;;;;;;;;;;5074315;28;20929;-69
2022/03/05 02:25:29;;;;;;;11.63;6.70;;;;;;;;;;5074091;28;20456;-69
2022/03/05 02:27:57;;;;;;;24.27;11.23;;;;;;;;;;5073930;28;20476;-70
2022/03/05 02:30:24;;;;;;;18.77;8.00;;;;;;;;;;5074303;28;20459;-70
2022/03/05 02:32:51;;;;;;;21.77;10.40;;;;;;;;;;5074082;28;20458;-70
2022/03/05 02:35:18;;;;;;;24.40;11.33;;;;;;;;;;5073887;28;20455;-70
2022/03/05 02:37:47;;;;;;;22.87;10.27;;;;;;;;;;5073866;28;20479;-70
2022/03/05 02:40:14;;;;;;;24.97;11.50;;;;;;;;;;5074006;28;20451;-70
2022/03/05 02:42:41;;;;;;;25.83;13.43;;;;;;;;;;5073856;28;20463;-70
2022/03/05 02:45:08;;;;;;;28.93;12.90;;;;;;;;;;5073608;28;20455;-69
2022/03/05 02:47:37;;;;;;;26.40;13.13;;;;;;;;;;5073789;28;20484;-70
2022/03/05 02:50:04;;;;;;;21.90;10.67;;;;;;;;;;5073826;28;20845;-70
2022/03/05 02:52:31;;;;;;;22.67;11.63;;;;;;;;;;5073779;28;20455;-70
2022/03/05 02:55:00;;;;;;;31.10;12.33;;;;;;;;;;5073352;28;20451;-70
2022/03/05 02:57:27;;;;;;;26.60;13.03;;;;;;;;;;5073689;28;20879;-70
2022/03/05 02:59:54;;;;;;;26.00;13.37;;;;;;;;;;5073657;28;20483;-70
2022/03/05 03:02:21;;;;;;;24.27;12.57;;;;;;;;;;5073682;28;20787;-70
2022/03/05 03:04:48;;;;;;;27.50;12.17;;;;;;;;;;5073186;28;20454;-70
2022/03/05 03:07:15;;;;;;;27.73;12.60;;;;;;;;;;5073330;28;20483;-70
2022/03/05 03:09:42;;;;;;;26.23;13.67;;;;;;;;;;5073359;28;20443;-70
2022/03/05 03:12:11;;;;;;;29.83;13.90;;;;;;;;;;5073527;28;20456;-70
2022/03/05 03:14:39;;;;;;;45.63;14.60;;;;;;;;;;5073162;28;20455;-70
2022/03/05 03:17:06;;;;;;;28.93;13.20;;;;;;;;;;5073341;28;20477;-70
2022/03/05 03:19:33;;;;;;;30.73;13.90;;;;;;;;;;5073312;28;20492;-70
2022/03/05 03:22:00;;;;;;;28.50;14.00;;;;;;;;;;5073108;28;20451;-70
2022/03/05 03:24:27;;;;;;;30.67;12.20;;;;;;;;;;5072570;28;20459;-70
2022/03/05 03:26:54;;;;;;;25.93;13.03;;;;;;;;;;5073160;28;20482;-70
2022/03/05 03:29:23;;;;;;;36.00;13.50;;;;;;;;;;5073124;28;20451;-70
2022/03/05 03:31:50;;;;;;;36.83;13.60;;;;;;;;;;5073044;28;20456;-70
2022/03/05 03:34:17;;;;;;;37.33;14.90;;;;;;;;;;5072910;28;20463;-70
2022/03/05 03:36:44;;;;;;;22.80;13.10;;;;;;;;;;5072816;28;20472;-70
2022/03/05 03:39:11;;;;;;;23.80;11.90;;;;;;;;;;5072999;28;20494;-70
2022/03/05 03:41:38;;;;;;;24.70;13.20;;;;;;;;;;5073057;28;20470;-70
2022/03/05 03:44:06;;;;;;;39.00;12.53;;;;;;;;;;5072911;28;20459;-69
2022/03/05 03:46:34;;;;;;;24.87;12.80;;;;;;;;;;5072938;28;20455;-70
2022/03/05 03:49:01;;;;;;;28.20;15.30;;;;;;;;;;5072900;28;20944;-70
2022/03/05 03:51:29;;;;;;;29.23;14.20;;;;;;;;;;5072974;28;20455;-70
2022/03/05 03:53:56;;;;;;;31.13;13.73;;;;;;;;;;5073084;28;20919;-70
2022/03/05 03:56:23;;;;;;;31.80;13.57;;;;;;;;;;5072888;28;20462;-70
2022/03/05 03:58:50;;;;;;;35.53;13.97;;;;;;;;;;5072810;28;20490;-70
2022/03/05 04:01:17;;;;;;;38.47;18.00;;;;;;;;;;5072971;28;20448;-70
2022/03/05 04:03:45;;;;;;;27.70;13.23;;;;;;;;;;5071914;28;20455;-70
2022/03/05 04:06:13;;;;;;;25.63;11.60;;;;;;;;;;5072940;28;20455;-70
2022/03/05 04:08:41;;;;;;;29.23;14.37;;;;;;;;;;5072630;28;20472;-70
2022/03/05 04:11:09;;;;;;;27.00;15.80;;;;;;;;;;5072737;28;20444;-70
2022/03/05 04:13:36;;;;;;;31.70;15.83;;;;;;;;;;5072672;28;20464;-70
2022/03/05 04:16:03;;;;;;;31.37;15.43;;;;;;;;;;5072717;28;20439;-69
2022/03/05 04:18:30;;;;;;;36.73;15.60;;;;;;;;;;5072554;28;20484;-70
2022/03/05 04:21:00;;;;;;;32.27;16.00;;;;;;;;;;5072702;28;20474;-70
2022/03/05 04:23:27;;;;;;;28.83;12.80;;;;;;;;;;5072609;28;20451;-70
2022/03/05 04:25:54;;;;;;;32.57;14.50;;;;;;;;;;5072445;28;20458;-69
2022/03/05 04:28:21;;;;;;;38.13;18.17;;;;;;;;;;5072502;28;20476;-70
2022/03/05 04:30:48;;;;;;;34.13;15.77;;;;;;;;;;5072486;28;20455;-70
2022/03/05 04:33:15;;;;;;;36.73;14.90;;;;;;;;;;5072451;28;20459;-70
2022/03/05 04:35:42;;;;;;;28.83;15.80;;;;;;;;;;5072211;28;20817;-70
2022/03/05 04:38:11;;;;;;;29.20;13.87;;;;;;;;;;5076203;28;20471;-69
2022/03/05 04:40:38;;;;;;;32.90;13.97;;;;;;;;;;5075890;28;20484;-70
2022/03/05 04:43:05;;;;;;;31.33;15.50;;;;;;;;;;5076180;28;20465;-70
2022/03/05 04:45:32;;;;;;;42.37;16.00;;;;;;;;;;5075442;28;20452;-70
2022/03/05 04:47:59;;;;;;;33.20;16.90;;;;;;;;;;5075787;28;20487;-70
2022/03/05 04:50:26;;;;;;;34.60;14.53;;;;;;;;;;5076211;28;20855;-70
2022/03/05 04:52:53;;;;;;;39.53;16.90;;;;;;;;;;5075582;28;20455;-70
2022/03/05 04:55:22;;;;;;;37.03;16.30;;;;;;;;;;5075871;28;20444;-70
2022/03/05 04:57:49;;;;;;;27.33;15.23;;;;;;;;;;5075913;28;20475;-70
2022/03/05 05:00:16;;;;;;;39.27;19.17;;;;;;;;;;5075851;28;20510;-70
2022/03/05 05:02:43;;;;;;;32.77;17.37;;;;;;;;;;5075318;28;20503;-69
2022/03/05 05:05:11;;;;;;;36.93;17.30;;;;;;;;;;5075731;28;20452;-69
2022/03/05 05:07:39;;;;;;;39.70;17.07;;;;;;;;;;5075893;28;20518;-70
2022/03/05 05:10:07;;;;;;;35.53;17.47;;;;;;;;;;5075848;28;20451;-70
2022/03/05 05:12:35;;;;;;;31.50;15.00;;;;;;;;;;5075657;28;20911;-70
2022/03/05 05:15:02;;;;;;;32.50;15.93;;;;;;;;;;5075497;28;20455;-69
2022/03/05 05:17:29;;;;;;;34.23;15.70;;;;;;;;;;5075090;28;20468;-70
2022/03/05 05:19:56;;;;;;;40.63;16.57;;;;;;;;;;5075627;28;20490;-71
2022/03/05 05:22:23;;;;;;;30.47;15.13;;;;;;;;;;5075080;28;20975;-71
2022/03/05 05:24:51;;;;;;;34.97;14.50;;;;;;;;;;5075169;28;20461;-72
2022/03/05 05:27:18;;;;;;;36.73;15.60;;;;;;;;;;5075325;28;20488;-71
2022/03/05 05:29:46;;;;;;;31.70;15.30;;;;;;;;;;5075511;28;20821;-71
2022/03/05 05:32:14;;;;;;;35.00;15.57;;;;;;;;;;5075326;28;20451;-71
2022/03/05 05:34:42;;;;;;;47.30;15.40;;;;;;;;;;5075104;28;20451;-71
2022/03/05 05:37:09;;;;;;;35.73;15.30;;;;;;;;;;5075073;28;20503;-71
2022/03/05 05:39:36;;;;;;;35.33;14.17;;;;;;;;;;5075266;28;21002;-71
2022/03/05 05:42:04;;;;;;;29.00;14.03;;;;;;;;;;5075107;28;20451;-71
2022/03/05 05:44:31;;;;;;;27.83;14.20;;;;;;;;;;5075000;28;20555;-71
2022/03/05 05:47:00;;;;;;;37.97;14.27;;;;;;;;;;5074518;28;20977;-72
2022/03/05 05:49:27;;;;;;;32.10;17.00;;;;;;;;;;5074939;28;20459;-71
2022/03/05 05:51:54;;;;;;;33.50;15.70;;;;;;;;;;5074723;28;20944;-71
2022/03/05 05:54:23;;;;;;;31.23;15.67;;;;;;;;;;5074525;28;20459;-71
2022/03/05 05:56:50;;;;;;;31.23;16.30;;;;;;;;;;5074540;28;20486;-71
2022/03/05 05:59:17;;;;;;;32.90;16.60;;;;;;;;;;5075081;28;20836;-70
2022/03/05 06:01:45;;;;;;;28.37;13.40;;;;;;;;;;5074662;28;20451;-71
2022/03/05 06:04:13;;;;;;;32.43;13.70;;;;;;;;;;5074439;28;20519;-71
2022/03/05 06:06:40;;;;;;;38.67;16.60;;;;;;;;;;5074549;28;20460;-71
2022/03/05 06:09:07;;;;;;;29.60;14.30;;;;;;;;;;5074784;28;20487;-71
2022/03/05 06:11:35;;;;;;;35.83;17.03;;;;;;;;;;5074560;28;20447;-71
2022/03/05 06:14:02;;;;;;;31.17;15.20;;;;;;;;;;5074449;28;20967;-71
2022/03/05 06:16:29;;;;;;;32.60;18.30;;;;;;;;;;5074508;28;20452;-71
2022/03/05 06:18:56;;;;;;;31.53;17.00;;;;;;;;;;5074370;28;20448;-71
2022/03/05 06:21:24;;;;;;;33.90;12.83;;;;;;;;;;5074347;28;20903;-71
2022/03/05 06:23:51;;;;;;;34.07;15.90;;;;;;;;;;5074090;28;20462;-71
2022/03/05 06:26:19;;;;;;;21.13;13.30;;;;;;;;;;5074109;28;20452;-71
2022/03/05 06:28:46;;;;;;;33.07;14.40;;;;;;;;;;5074197;28;20482;-71
2022/03/05 06:31:13;;;;;;;30.93;13.57;;;;;;;;;;5074188;28;20443;-71
2022/03/05 06:33:40;;;;;;;27.77;14.57;;;;;;;;;;5073948;28;20458;-72
2022/03/05 06:36:07;;;;;;;26.93;14.07;;;;;;;;;;5074056;28;20459;-71
2022/03/05 06:38:36;;;;;;;27.30;14.80;;;;;;;;;;5073936;28;20562;-71
2022/03/05 06:41:03;;;;;;;32.23;14.87;;;;;;;;;;5073971;28;20490;-70
2022/03/05 06:43:30;;;;;;;28.13;15.17;;;;;;;;;;5073830;28;20452;-71
2022/03/05 06:45:57;;;;;;;26.87;14.30;;;;;;;;;;5073876;28;20971;-70
2022/03/05 06:48:24;;;;;;;26.33;13.13;;;;;;;;;;5073484;28;20488;-69
2022/03/05 06:50:51;;;;;;;28.30;14.83;;;;;;;;;;5073715;28;20488;-69
2022/03/05 06:53:18;;;;;;;30.77;15.27;;;;;;;;;;5073742;28;20816;-69
2022/03/05 06:55:47;;;;;;;27.10;13.40;;;;;;;;;;5073473;28;20458;-69
2022/03/05 06:58:17;;;;;;;28.53;15.33;;;;;;;;;;5073443;28;20471;-69
2022/03/05 07:00:45;;;;;;;30.07;16.53;;;;;;;;;;5072938;28;20483;-69
2022/03/05 07:03:12;;;;;;;25.83;14.60;;;;;;;;;;5072877;28;20450;-69
2022/03/05 07:05:39;;;;;;;29.63;16.13;;;;;;;;;;5073352;28;20456;-69
2022/03/05 07:08:07;;;;;;;26.43;18.13;;;;;;;;;;5073327;28;20476;-69
2022/03/05 07:10:34;;;;;;;25.13;15.57;;;;;;;;;;5073649;28;20771;-69
2022/03/05 07:13:03;;;;;;;27.30;16.80;;;;;;;;;;5073439;28;20821;-69
2022/03/05 07:15:30;;;;;;;35.17;19.30;;;;;;;;;;5073015;28;20451;-69
2022/03/05 07:17:57;;;;;;;102.37;66.40;;;;;;;;;;5073089;28;20479;-69
2022/03/05 07:20:24;;;;;;;27.10;16.20;;;;;;;;;;5073500;28;20483;-69
2022/03/05 07:22:51;;;;;;;28.23;15.20;;;;;;;;;;5073217;28;20484;-69
2022/03/05 07:25:18;;;;;;;31.53;16.33;;;;;;;;;;5073224;28;20452;-69
2022/03/05 07:27:45;;;;;;;29.37;15.53;;;;;;;;;;5073130;28;20999;-71
2022/03/05 07:30:14;;;;;;;24.90;14.43;;;;;;;;;;5073406;28;20455;-69
2022/03/05 07:32:41;;;;;;;38.70;20.90;;;;;;;;;;5073046;28;20945;-69
2022/03/05 07:35:09;;;;;;;33.13;19.83;;;;;;;;;;5072967;28;20542;-68
2022/03/05 07:37:36;;;;;;;37.10;16.90;;;;;;;;;;5073003;28;20475;-71
2022/03/05 07:40:04;;;;;;;25.03;14.20;;;;;;;;;;5073110;28;20488;-71
2022/03/05 07:42:31;;;;;;;39.80;17.73;;;;;;;;;;5072934;28;20456;-71
2022/03/05 07:44:58;;;;;;;42.03;23.07;;;;;;;;;;5072967;28;21015;-72
2022/03/05 07:47:27;;;;;;;34.03;17.13;;;;;;;;;;5073131;28;20475;-69
2022/03/05 07:49:54;;;;;;;24.17;12.83;;;;;;;;;;5073476;28;20435;-69
2022/03/05 07:52:21;;;;;;;31.00;15.13;;;;;;;;;;5073431;28;20951;-69
2022/03/05 07:54:48;;;;;;;27.90;15.73;;;;;;;;;;5073341;28;20459;-69
2022/03/05 07:57:15;;;;;;;35.67;16.27;;;;;;;;;;5073242;28;20471;-69
2022/03/05 07:59:42;;;;;;;34.23;14.67;;;;;;;;;;5073340;28;20808;-70
2022/03/05 08:02:10;;;;;;;28.40;16.97;;;;;;;;;;5073045;28;20455;-69
2022/03/05 08:04:38;;;;;;;26.30;14.30;;;;;;;;;;5073253;28;20463;-69
2022/03/05 08:07:07;;;;;;;30.97;17.70;;;;;;;;;;5072865;28;20467;-69
2022/03/05 08:09:35;;;;;;;38.40;18.67;;;;;;;;;;5072890;28;20509;-68
2022/03/05 08:12:02;;;;;;;24.73;14.43;;;;;;;;;;5076981;28;20452;-68
2022/03/05 08:14:29;;;;;;;37.07;19.87;;;;;;;;;;5077079;28;20456;-68
2022/03/05 08:16:56;;;;;;;28.10;14.37;;;;;;;;;;5077244;28;20498;-69
2022/03/05 08:19:24;;;;;;;28.13;16.40;;;;;;;;;;5077192;28;20800;-69
2022/03/05 08:21:52;;;;;;;32.77;18.80;;;;;;;;;;5076896;28;21022;-69
2022/03/05 08:24:19;;;;;;;28.83;16.10;;;;;;;;;;5076875;28;20949;-69
2022/03/05 08:26:46;;;;;;;25.30;14.20;;;;;;;;;;5077027;28;20812;-69
2022/03/05 08:29:14;;;;;;;23.80;14.60;;;;;;;;;;5077553;28;20450;-69
2022/03/05 08:31:41;;;;;;;23.90;14.90;;;;;;;;;;5077001;28;20458;-69
2022/03/05 08:34:08;;;;;;;29.70;18.80;;;;;;;;;;5077383;28;20459;-69
2022/03/05 08:36:35;;;;;;;24.13;14.60;;;;;;;;;;5077282;28;20443;-69
2022/03/05 08:39:04;;;;;;;31.53;18.20;;;;;;;;;;5076680;28;20451;-69
2022/03/05 08:41:31;;;;;;;29.03;16.53;;;;;;;;;;5077874;28;21015;-69
2022/03/05 08:43:58;;;;;;;39.60;24.87;;;;;;;;;;5077403;28;20451;-69
2022/03/05 08:46:25;;;;;;;27.10;16.57;;;;;;;;;;5077141;28;20462;-69
2022/03/05 08:48:52;;;;;;;32.47;17.23;;;;;;;;;;5077079;28;20455;-69
2022/03/05 08:51:19;;;;;;;26.73;16.07;;;;;;;;;;5076982;28;21007;-69
2022/03/05 08:53:47;;;;;;;25.73;16.57;;;;;;;;;;5076508;28;20455;-69
2022/03/05 08:56:15;;;;;;;33.80;17.13;;;;;;;;;;5076711;28;20462;-69
2022/03/05 08:58:42;;;;;;;23.83;16.10;;;;;;;;;;5076842;28;20981;-69
2022/03/05 09:01:09;;;;;;;27.07;16.00;;;;;;;;;;5076749;28;20502;-69
2022/03/05 09:03:36;;;;;;;25.10;15.63;;;;;;;;;;5076537;28;20451;-68
2022/03/05 09:06:04;;;;;;;23.20;12.87;;;;;;;;;;5076594;28;20554;-69
2022/03/05 09:08:31;;;;;;;25.27;15.67;;;;;;;;;;5076794;28;20813;-69
2022/03/05 09:10:58;;;;;;;21.87;14.67;;;;;;;;;;5076211;28;20535;-69
2022/03/05 09:13:27;;;;;;;26.83;15.77;;;;;;;;;;5076686;28;20447;-69
2022/03/05 09:15:54;;;;;;;21.97;14.23;;;;;;;;;;5076063;28;20455;-69
2022/03/05 09:18:21;;;;;;;17.73;12.73;;;;;;;;;;5076247;28;20468;-69
2022/03/05 09:20:48;;;;;;;22.00;10.90;;;;;;;;;;5075695;28;21015;-69
2022/03/05 09:23:15;;;;;;;19.93;11.93;;;;;;;;;;5075943;28;20448;-69
2022/03/05 09:25:43;;;;;;;31.83;15.13;;;;;;;;;;5075951;28;20459;-69
2022/03/05 09:28:10;;;;;;;23.70;12.80;;;;;;;;;;5075858;28;20475;-69
2022/03/05 09:30:38;;;;;;;22.10;13.10;;;;;;;;;;5076389;28;20937;-69
2022/03/05 09:33:07;;;;;;;24.07;13.00;;;;;;;;;;5076097;28;20458;-69
2022/03/05 09:35:35;;;;;;;22.40;13.63;;;;;;;;;;5075686;28;20513;-69
2022/03/05 09:38:02;;;;;;;19.50;13.60;;;;;;;;;;5075833;28;20471;-69
2022/03/05 09:40:30;;;;;;;21.00;12.43;;;;;;;;;;5075647;28;20487;-68
2022/03/05 09:42:57;;;;;;;20.53;13.27;;;;;;;;;;5075902;28;20949;-69
2022/03/05 09:45:24;;;;;;;20.30;13.23;;;;;;;;;;5075229;28;20460;-69
2022/03/05 09:47:52;;;;;;;22.23;12.93;;;;;;;;;;5074964;28;20480;-68
2022/03/05 09:50:20;;;;;;;22.20;12.13;;;;;;;;;;5076001;28;20839;-70
2022/03/05 09:52:47;;;;;;;16.10;8.80;;;;;;;;;;5075770;28;20460;-71
2022/03/05 09:55:14;;;;;;;18.10;10.77;;;;;;;;;;5075327;28;20462;-69
2022/03/05 09:57:42;;;;;;;23.50;13.30;;;;;;;;;;5075367;28;20478;-69
2022/03/05 10:00:09;;;;;;;18.13;11.67;;;;;;;;;;5075799;28;20949;-69
2022/03/05 10:02:38;;;;;;;19.93;12.80;;;;;;;;;;5075101;28;20451;-69
2022/03/05 10:05:14;;;;;;;26.23;13.57;;;;;;;;;;5075102;28;20458;-69
2022/03/05 10:07:59;;;;;;;24.23;13.00;;;;;;;;;;5075244;28;20479;-70
2022/03/05 10:10:26;;;;;;;26.23;13.90;;;;;;;;;;5075147;28;20945;-69
2022/03/05 10:12:53;;;;;;;16.77;9.40;;;;;;;;;;5074807;28;20467;-70
2022/03/05 10:15:21;;;;;;;21.27;10.43;;;;;;;;;;5074860;28;20463;-69
2022/03/05 10:17:52;;;;;;;17.53;10.90;;;;;;;;;;5074622;28;20483;-70
2022/03/05 10:20:20;;;;;;;22.57;10.40;;;;;;;;;;5075509;28;20448;-69
2022/03/05 10:23:06;;;;;;;18.23;10.20;;;;;;;;;;5075197;28;20439;-69
2022/03/05 10:25:34;;;;;;;21.10;11.60;;;;;;;;;;5075003;28;20940;-69
2022/03/05 10:28:02;;;;;;;17.47;7.97;;;;;;;;;;5074626;28;20482;-69
2022/03/05 10:30:30;;;;;;;23.67;10.83;;;;;;;;;;5074985;28;20447;-69
2022/03/05 10:32:57;;;;;;;20.37;12.00;;;;;;;;;;5074751;28;20941;-70
2022/03/05 10:35:26;;;;;;;23.73;12.77;;;;;;;;;;5074348;28;20459;-69
2022/03/05 10:37:53;;;;;;;16.27;9.80;;;;;;;;;;5074236;28;20852;-69
2022/03/05 10:40:26;;;;;;;18.17;9.23;;;;;;;;;;5075211;28;20454;-70
2022/03/05 10:42:53;;;;;;;13.87;9.00;;;;;;;;;;5074311;28;20487;-69
2022/03/05 10:45:22;;;;;;;18.30;10.50;;;;;;;;;;5074180;28;20808;-69
2022/03/05 10:47:49;;;;;;;19.03;9.37;;;;;;;;;;5074534;28;21027;-70
2022/03/05 10:50:23;;;;;;;16.90;9.30;;;;;;;;;;5074655;28;20447;-70
2022/03/05 10:52:52;;;;;;;47.83;22.63;;;;;;;;;;5074057;28;20447;-71
2022/03/05 10:55:21;;;;;;;13.97;9.93;;;;;;;;;;5074346;28;20452;-69
2022/03/05 10:58:06;;;;;;;20.67;12.57;;;;;;;;;;5074150;28;20463;-68
2022/03/05 11:00:33;;;;;;;15.77;9.53;;;;;;;;;;5074254;28;20455;-68
2022/03/05 11:03:02;;;;;;;20.60;11.73;;;;;;;;;;5073442;28;20452;-69
2022/03/05 11:05:29;;;;;;;17.23;8.70;;;;;;;;;;5073873;28;20495;-69
2022/03/05 11:07:58;;;;;;;17.20;9.17;;;;;;;;;;5073992;28;20479;-68
2022/03/05 11:10:29;;;;;;;35.67;18.77;;;;;;;;;;5074777;28;20451;-68
2022/03/05 11:12:59;;;;;;;25.90;14.00;;;;;;;;;;5073793;28;20456;-68
2022/03/05 11:15:26;;;;;;;24.90;14.17;;;;;;;;;;5073483;28;20495;-68
2022/03/05 11:17:54;;;;;;;21.33;8.87;;;;;;;;;;5073408;28;20472;-68
2022/03/05 11:20:21;;;;;;;13.13;9.33;;;;;;;;;;5073721;28;20456;-68
2022/03/05 11:22:50;;;;;;;15.87;9.40;;;;;;;;;;5073393;28;20578;-68
2022/03/05 11:25:20;;;;;;;17.90;10.27;;;;;;;;;;5073904;28;20459;-69
2022/03/05 11:27:57;;;;;;;13.57;7.97;;;;;;;;;;5073913;28;20484;-69
2022/03/05 11:30:24;;;;;;;16.60;10.00;;;;;;;;;;5073747;28;20513;-68
2022/03/05 11:32:52;;;;;;;13.53;8.20;;;;;;;;;;5074060;28;20977;-69
2022/03/05 11:35:20;;;;;;;15.07;9.47;;;;;;;;;;5073794;28;20463;-69
2022/03/05 11:37:50;;;;;;;23.00;12.47;;;;;;;;;;5073790;28;20467;-69
2022/03/05 11:40:33;;;;;;;33.70;13.60;;;;;;;;;;5074046;28;20459;-69
2022/03/05 11:43:16;;;;;;;18.17;10.90;;;;;;;;;;5073840;28;20479;-68
2022/03/05 11:45:48;;;;;;;20.23;12.17;;;;;;;;;;5073263;28;20834;-69
2022/03/05 11:48:27;;;;;;;19.90;11.30;;;;;;;;;;5073263;28;20878;-69
2022/03/05 11:50:55;;;;;;;18.17;10.00;;;;;;;;;;5073352;28;20958;-69
2022/03/05 11:53:22;;;;;;;23.43;11.60;;;;;;;;;;5073732;28;20872;-69
2022/03/05 11:55:51;;;;;;;19.93;11.97;;;;;;;;;;5073475;28;20941;-69
2022/03/05 11:58:34;;;;;;;12.70;7.30;;;;;;;;;;5073478;28;20467;-69
2022/03/05 12:01:16;;;;;;;22.60;10.07;;;;;;;;;;5073823;28;20517;-69
2022/03/05 12:03:43;;;;;;;21.30;11.30;;;;;;;;;;5073539;28;20822;-68
2022/03/05 12:06:12;;;;;;;22.43;11.53;;;;;;;;;;5074212;28;20447;-68
2022/03/05 12:08:43;;;;;;;16.07;6.73;;;;;;;;;;5074314;28;20494;-67
2022/03/05 12:11:12;;;;;;;19.10;11.30;;;;;;;;;;5074612;28;20436;-68
2022/03/05 12:13:44;;;;;;;27.40;12.07;;;;;;;;;;5073657;28;20443;-69
2022/03/05 12:16:14;;;;;;;13.60;7.50;;;;;;;;;;5074470;28;20979;-67
2022/03/05 12:18:42;;;;;;;20.07;10.47;;;;;;;;;;5074679;28;20463;-69
2022/03/05 12:21:09;;;;;;;13.87;8.33;;;;;;;;;;5074401;28;20988;-68
2022/03/05 12:23:36;;;;;;;12.47;7.57;;;;;;;;;;5074343;28;20886;-69
2022/03/05 12:26:04;;;;;;;15.33;7.70;;;;;;;;;;5073945;28;20456;-68
2022/03/05 12:28:40;;;;;;;15.53;6.70;;;;;;;;;;5073505;28;20538;-69
2022/03/05 12:31:07;;;;;;;9.37;5.53;;;;;;;;;;5074258;28;20455;-69
2022/03/05 12:33:35;;;;;;;12.90;6.67;;;;;;;;;;5073842;28;20447;-68
2022/03/05 12:36:02;;;;;;;8.27;3.70;;;;;;;;;;5073661;28;20467;-68
2022/03/05 12:38:29;;;;;;;16.07;7.60;;;;;;;;;;5073736;28;20471;-68
2022/03/05 12:40:56;;;;;;;14.50;6.67;;;;;;;;;;5073982;28;20456;-68
2022/03/05 12:43:23;;;;;;;15.90;7.67;;;;;;;;;;5073446;28;20483;-69
2022/03/05 12:45:52;;;;;;;11.77;7.37;;;;;;;;;;5073658;28;20460;-68
2022/03/05 12:48:20;;;;;;;15.00;5.90;;;;;;;;;;5073614;28;20483;-68
2022/03/05 12:50:48;;;;;;;17.73;6.90;;;;;;;;;;5073839;28;20865;-69
2022/03/05 12:53:16;;;;;;;14.40;9.17;;;;;;;;;;5073141;28;20458;-68
2022/03/05 12:55:44;;;;;;;10.20;5.90;;;;;;;;;;5073386;28;20963;-69
2022/03/05 12:58:14;;;;;;;11.07;6.10;;;;;;;;;;5075358;28;20478;-68
2022/03/05 13:00:42;;;;;;;12.50;5.37;;;;;;;;;;5077528;28;20454;-69
2022/03/05 13:03:12;;;;;;;19.83;6.37;;;;;;;;;;5076739;28;20869;-68
2022/03/05 13:05:40;;;;;;;10.33;4.57;;;;;;;;;;5077003;28;20949;-69
2022/03/05 13:08:07;;;;;;;8.03;5.30;;;;;;;;;;5077333;28;20463;-69
2022/03/05 13:10:34;;;;;;;11.23;5.67;;;;;;;;;;5077006;28;20463;-68
2022/03/05 13:13:02;;;;;;;10.00;3.70;;;;;;;;;;5076829;28;20443;-69
2022/03/05 13:15:30;;;;;;;6.40;4.73;;;;;;;;;;5076306;28;20448;-69
2022/03/05 13:18:14;;;;;;;8.17;5.37;;;;;;;;;;5076063;28;20511;-69
2022/03/05 13:20:41;;;;;;;6.73;4.63;;;;;;;;;;5076658;28;20902;-69
2022/03/05 13:23:08;;;;;;;9.43;5.03;;;;;;;;;;5076506;28;20487;-68
2022/03/05 13:25:42;;;;;;;6.80;5.03;;;;;;;;;;5076374;28;20443;-69
2022/03/05 13:28:10;;;;;;;8.63;5.67;;;;;;;;;;5076647;28;20980;-69
2022/03/05 13:30:37;;;;;;;11.67;6.63;;;;;;;;;;5076694;28;20448;-69
2022/03/05 13:33:04;;;;;;;7.80;4.13;;;;;;;;;;5076650;28;20539;-69
2022/03/05 13:35:42;;;;;;;11.90;5.57;;;;;;;;;;5076212;28;20451;-68
2022/03/05 13:38:26;;;;;;;12.63;7.87;;;;;;;;;;5076511;28;20479;-68
2022/03/05 13:40:54;;;;;;;4.30;3.23;;;;;;;;;;5074357;28;20465;-69
2022/03/05 13:43:23;;;;;;;12.20;6.90;;;;;;;;;;5076233;28;20487;-69
2022/03/05 13:45:50;;;;;;;9.60;5.70;;;;;;;;;;5075911;28;20968;-68
2022/03/05 13:48:17;;;;;;;10.83;4.90;;;;;;;;;;5075937;28;20482;-68
2022/03/05 13:50:46;;;;;;;17.50;7.73;;;;;;;;;;5076584;28;20523;-68
2022/03/05 13:53:13;;;;;;;6.67;3.90;;;;;;;;;;5076389;28;20546;-69
2022/03/05 13:55:40;;;;;;;8.80;4.97;;;;;;;;;;5076620;28;20452;-69
2022/03/05 13:58:20;;;;;;;16.30;6.30;;;;;;;;;;5076978;28;20467;-68
2022/03/05 14:00:47;;;;;;;18.47;7.13;;;;;;;;;;5076506;28;20463;-69
2022/03/05 14:03:17;;;;;;;9.67;5.60;;;;;;;;;;5075782;28;20483;-69
2022/03/05 14:05:46;;;;;;;7.50;5.13;;;;;;;;;;5076751;28;20474;-69
2022/03/05 14:08:13;;;;;;;10.23;6.77;;;;;;;;;;5075705;28;20476;-69
2022/03/05 14:10:41;;;;;;;6.30;4.40;;;;;;;;;;5076117;28;20454;-69
2022/03/05 14:13:15;;;;;;;10.60;6.60;;;;;;;;;;5076601;28;20443;-68
2022/03/05 14:15:47;;;;;;;10.67;7.00;;;;;;;;;;5075678;28;20443;-68
2022/03/05 14:18:15;;;;;;;7.50;5.43;;;;;;;;;;5075933;28;20518;-68
2022/03/05 14:20:42;;;;;;;19.30;9.57;;;;;;;;;;5075763;28;20451;-69
2022/03/05 14:23:13;;;;;;;15.73;7.13;;;;;;;;;;5076042;28;20574;-67
2022/03/05 14:25:41;;;;;;;17.80;8.10;;;;;;;;;;5075951;28;20458;-68